sensor_id;sensor_type;location;lat;lon;timestamp;temperature;humidity
6672;DHT22;3372;48.690;12.362;2022-07-12T00:01:30;17.90;31.00
6672;DHT22;3372;48.690;12.362;2022-07-12T00:03:57;17.90;30.70
6672;DHT22;3372;48.690;12.362;2022-07-12T00:06:22;17.90;31.50
6672;DHT22;3372;48.690;12.362;2022-07-12T00:08:48;18.00;30.80
6672;DHT22;3372;48.690;12.362;2022-07-12T00:11:14;18.00;30.70
6672;DHT22;3372;48.690;12.362;2022-07-12T00:13:39;18.00;31.20
6672;DHT22;3372;48.690;12.362;2022-07-12T00:16:05;18.10;30.80
6672;DHT22;3372;48.690;12.362;2022-07-12T00:18:31;18.10;30.50
6672;DHT22;3372;48.690;12.362;2022-07-12T00:20:57;18.10;31.20
6672;DHT22;3372;48.690;12.362;2022-07-12T00:23:23;18.10;31.30
6672;DHT22;3372;48.690;12.362;2022-07-12T00:25:48;18.10;31.70
6672;DHT22;3372;48.690;12.362;2022-07-12T00:28:14;18.20;31.20
6672;DHT22;3372;48.690;12.362;2022-07-12T00:30:40;18.10;31.10
6672;DHT22;3372;48.690;12.362;2022-07-12T00:33:06;18.20;30.90
6672;DHT22;3372;48.690;12.362;2022-07-12T00:35:31;18.20;31.00
6672;DHT22;3372;48.690;12.362;2022-07-12T00:37:57;18.20;30.10
6672;DHT22;3372;48.690;12.362;2022-07-12T00:40:22;18.20;30.30
6672;DHT22;3372;48.690;12.362;2022-07-12T00:42:48;18.20;31.00
6672;DHT22;3372;48.690;12.362;2022-07-12T00:45:13;18.20;30.60
6672;DHT22;3372;48.690;12.362;2022-07-12T00:47:44;18.30;30.80
6672;DHT22;3372;48.690;12.362;2022-07-12T00:50:13;18.30;30.40
6672;DHT22;3372;48.690;12.362;2022-07-12T00:52:41;18.30;30.00
6672;DHT22;3372;48.690;12.362;2022-07-12T00:55:08;18.30;30.40
6672;DHT22;3372;48.690;12.362;2022-07-12T00:57:35;18.30;30.40
6672;DHT22;3372;48.690;12.362;2022-07-12T01:00:03;18.30;30.40
6672;DHT22;3372;48.690;12.362;2022-07-12T01:02:30;18.40;30.40
6672;DHT22;3372;48.690;12.362;2022-07-12T01:04:56;18.40;30.00
6672;DHT22;3372;48.690;12.362;2022-07-12T01:07:23;18.40;30.60
6672;DHT22;3372;48.690;12.362;2022-07-12T01:09:51;18.40;30.60
6672;DHT22;3372;48.690;12.362;2022-07-12T01:12:17;18.40;30.30
6672;DHT22;3372;48.690;12.362;2022-07-12T01:14:44;18.40;30.00
6672;DHT22;3372;48.690;12.362;2022-07-12T01:17:10;18.30;30.00
6672;DHT22;3372;48.690;12.362;2022-07-12T01:19:37;18.40;30.60
6672;DHT22;3372;48.690;12.362;2022-07-12T01:22:06;18.30;30.20
6672;DHT22;3372;48.690;12.362;2022-07-12T01:24:33;18.30;30.20
6672;DHT22;3372;48.690;12.362;2022-07-12T01:27:00;18.30;30.50
6672;DHT22;3372;48.690;12.362;2022-07-12T01:29:27;18.40;30.60
6672;DHT22;3372;48.690;12.362;2022-07-12T01:31:53;18.40;30.60
6672;DHT22;3372;48.690;12.362;2022-07-12T01:34:20;18.30;30.40
6672;DHT22;3372;48.690;12.362;2022-07-12T01:36:46;18.30;30.90
6672;DHT22;3372;48.690;12.362;2022-07-12T01:39:13;18.30;30.60
6672;DHT22;3372;48.690;12.362;2022-07-12T01:41:38;18.30;30.80
6672;DHT22;3372;48.690;12.362;2022-07-12T01:44:05;18.30;30.40
6672;DHT22;3372;48.690;12.362;2022-07-12T01:46:31;18.40;30.60
6672;DHT22;3372;48.690;12.362;2022-07-12T01:48:56;18.30;30.40
6672;DHT22;3372;48.690;12.362;2022-07-12T01:51:22;18.40;30.00
6672;DHT22;3372;48.690;12.362;2022-07-12T01:53:48;18.40;30.40
6672;DHT22;3372;48.690;12.362;2022-07-12T01:56:13;18.40;30.20
6672;DHT22;3372;48.690;12.362;2022-07-12T01:58:39;18.40;30.90
6672;DHT22;3372;48.690;12.362;2022-07-12T02:01:05;18.40;30.40
6672;DHT22;3372;48.690;12.362;2022-07-12T02:03:34;18.40;30.20
6672;DHT22;3372;48.690;12.362;2022-07-12T02:06:01;18.40;30.60
6672;DHT22;3372;48.690;12.362;2022-07-12T02:08:27;18.40;30.50
6672;DHT22;3372;48.690;12.362;2022-07-12T02:10:52;18.40;29.90
6672;DHT22;3372;48.690;12.362;2022-07-12T02:13:18;18.40;30.10
6672;DHT22;3372;48.690;12.362;2022-07-12T02:15:43;18.40;30.40
6672;DHT22;3372;48.690;12.362;2022-07-12T02:18:09;18.40;30.30
6672;DHT22;3372;48.690;12.362;2022-07-12T02:20:34;18.40;30.60
6672;DHT22;3372;48.690;12.362;2022-07-12T02:23:00;18.40;30.30
6672;DHT22;3372;48.690;12.362;2022-07-12T02:25:26;18.40;30.30
6672;DHT22;3372;48.690;12.362;2022-07-12T02:27:51;18.40;30.20
6672;DHT22;3372;48.690;12.362;2022-07-12T02:30:17;18.40;30.00
6672;DHT22;3372;48.690;12.362;2022-07-12T02:32:42;18.40;30.50
6672;DHT22;3372;48.690;12.362;2022-07-12T02:35:08;18.40;30.30
6672;DHT22;3372;48.690;12.362;2022-07-12T02:37:34;18.40;30.40
6672;DHT22;3372;48.690;12.362;2022-07-12T02:39:59;18.40;30.20
6672;DHT22;3372;48.690;12.362;2022-07-12T02:42:43;18.40;30.50
6672;DHT22;3372;48.690;12.362;2022-07-12T02:45:10;18.40;31.20
6672;DHT22;3372;48.690;12.362;2022-07-12T02:47:39;18.40;29.90
6672;DHT22;3372;48.690;12.362;2022-07-12T02:50:06;18.40;30.30
6672;DHT22;3372;48.690;12.362;2022-07-12T02:52:33;18.40;30.20
6672;DHT22;3372;48.690;12.362;2022-07-12T02:54:58;18.40;30.60
6672;DHT22;3372;48.690;12.362;2022-07-12T02:57:24;18.40;30.10
6672;DHT22;3372;48.690;12.362;2022-07-12T02:59:50;18.30;30.30
6672;DHT22;3372;48.690;12.362;2022-07-12T03:02:15;18.30;30.10
6672;DHT22;3372;48.690;12.362;2022-07-12T03:04:41;18.30;30.10
6672;DHT22;3372;48.690;12.362;2022-07-12T03:07:07;18.20;30.00
6672;DHT22;3372;48.690;12.362;2022-07-12T03:09:33;18.20;30.10
6672;DHT22;3372;48.690;12.362;2022-07-12T03:11:58;18.20;29.90
6672;DHT22;3372;48.690;12.362;2022-07-12T03:14:24;18.10;29.90
6672;DHT22;3372;48.690;12.362;2022-07-12T03:16:51;18.10;30.30
6672;DHT22;3372;48.690;12.362;2022-07-12T03:19:16;18.00;30.10
6672;DHT22;3372;48.690;12.362;2022-07-12T03:21:42;18.00;30.40
6672;DHT22;3372;48.690;12.362;2022-07-12T03:24:07;18.00;30.70
6672;DHT22;3372;48.690;12.362;2022-07-12T03:26:33;17.90;30.30
6672;DHT22;3372;48.690;12.362;2022-07-12T03:28:59;18.00;30.10
6672;DHT22;3372;48.690;12.362;2022-07-12T03:31:26;18.00;30.80
6672;DHT22;3372;48.690;12.362;2022-07-12T03:33:52;17.90;30.50
6672;DHT22;3372;48.690;12.362;2022-07-12T03:36:18;17.90;31.50
6672;DHT22;3372;48.690;12.362;2022-07-12T03:38:44;17.90;31.00
6672;DHT22;3372;48.690;12.362;2022-07-12T03:41:09;18.00;31.20
6672;DHT22;3372;48.690;12.362;2022-07-12T03:43:35;17.90;31.00
6672;DHT22;3372;48.690;12.362;2022-07-12T03:46:01;18.00;31.40
6672;DHT22;3372;48.690;12.362;2022-07-12T03:48:26;18.00;31.10
6672;DHT22;3372;48.690;12.362;2022-07-12T03:50:52;18.00;31.10
6672;DHT22;3372;48.690;12.362;2022-07-12T03:53:17;18.00;31.10
6672;DHT22;3372;48.690;12.362;2022-07-12T03:55:43;18.10;31.60
6672;DHT22;3372;48.690;12.362;2022-07-12T03:58:10;18.10;31.40
6672;DHT22;3372;48.690;12.362;2022-07-12T04:00:35;18.10;31.40
6672;DHT22;3372;48.690;12.362;2022-07-12T04:03:01;18.10;31.20
6672;DHT22;3372;48.690;12.362;2022-07-12T04:05:26;18.10;31.50
6672;DHT22;3372;48.690;12.362;2022-07-12T04:07:53;18.10;31.60
6672;DHT22;3372;48.690;12.362;2022-07-12T04:10:19;18.10;32.20
6672;DHT22;3372;48.690;12.362;2022-07-12T04:12:45;18.10;33.20
6672;DHT22;3372;48.690;12.362;2022-07-12T04:15:12;18.10;33.10
6672;DHT22;3372;48.690;12.362;2022-07-12T04:17:37;18.10;33.10
6672;DHT22;3372;48.690;12.362;2022-07-12T04:20:04;18.00;32.90
6672;DHT22;3372;48.690;12.362;2022-07-12T04:22:31;18.10;32.60
6672;DHT22;3372;48.690;12.362;2022-07-12T04:24:57;18.20;32.70
6672;DHT22;3372;48.690;12.362;2022-07-12T04:27:24;18.30;32.40
6672;DHT22;3372;48.690;12.362;2022-07-12T04:29:51;18.40;32.00
6672;DHT22;3372;48.690;12.362;2022-07-12T04:32:17;18.40;32.30
6672;DHT22;3372;48.690;12.362;2022-07-12T04:34:43;18.40;32.60
6672;DHT22;3372;48.690;12.362;2022-07-12T04:37:09;18.40;32.40
6672;DHT22;3372;48.690;12.362;2022-07-12T04:39:34;18.50;32.00
6672;DHT22;3372;48.690;12.362;2022-07-12T04:42:00;18.50;32.00
6672;DHT22;3372;48.690;12.362;2022-07-12T04:44:26;18.50;32.00
6672;DHT22;3372;48.690;12.362;2022-07-12T04:46:52;18.30;32.40
6672;DHT22;3372;48.690;12.362;2022-07-12T04:49:17;18.20;33.00
6672;DHT22;3372;48.690;12.362;2022-07-12T04:51:43;18.30;33.10
6672;DHT22;3372;48.690;12.362;2022-07-12T04:54:09;18.30;32.40
6672;DHT22;3372;48.690;12.362;2022-07-12T04:56:34;18.40;32.80
6672;DHT22;3372;48.690;12.362;2022-07-12T04:59:00;18.40;32.30
6672;DHT22;3372;48.690;12.362;2022-07-12T05:01:26;18.50;32.00
6672;DHT22;3372;48.690;12.362;2022-07-12T05:03:51;18.50;31.80
6672;DHT22;3372;48.690;12.362;2022-07-12T05:06:17;18.80;32.00
6672;DHT22;3372;48.690;12.362;2022-07-12T05:08:43;19.40;31.10
6672;DHT22;3372;48.690;12.362;2022-07-12T05:11:09;19.70;30.40
6672;DHT22;3372;48.690;12.362;2022-07-12T05:13:34;20.30;28.80
6672;DHT22;3372;48.690;12.362;2022-07-12T05:16:00;21.00;28.10
6672;DHT22;3372;48.690;12.362;2022-07-12T05:18:25;21.50;26.90
6672;DHT22;3372;48.690;12.362;2022-07-12T05:20:51;21.90;25.90
6672;DHT22;3372;48.690;12.362;2022-07-12T05:23:17;22.40;24.60
6672;DHT22;3372;48.690;12.362;2022-07-12T05:25:42;22.60;23.30
6672;DHT22;3372;48.690;12.362;2022-07-12T05:28:08;22.90;22.50
6672;DHT22;3372;48.690;12.362;2022-07-12T05:30:33;22.90;22.70
6672;DHT22;3372;48.690;12.362;2022-07-12T05:32:59;22.90;22.60
6672;DHT22;3372;48.690;12.362;2022-07-12T05:35:25;23.40;21.30
6672;DHT22;3372;48.690;12.362;2022-07-12T05:37:51;23.70;22.00
6672;DHT22;3372;48.690;12.362;2022-07-12T05:40:17;23.80;19.90
6672;DHT22;3372;48.690;12.362;2022-07-12T05:42:44;23.80;20.40
6672;DHT22;3372;48.690;12.362;2022-07-12T05:45:10;24.20;19.70
6672;DHT22;3372;48.690;12.362;2022-07-12T05:47:35;24.50;19.90
6672;DHT22;3372;48.690;12.362;2022-07-12T05:50:02;24.30;19.60
6672;DHT22;3372;48.690;12.362;2022-07-12T05:52:28;24.10;19.90
6672;DHT22;3372;48.690;12.362;2022-07-12T05:55:12;24.40;19.50
6672;DHT22;3372;48.690;12.362;2022-07-12T05:57:38;24.20;18.70
6672;DHT22;3372;48.690;12.362;2022-07-12T06:00:04;24.60;18.70
6672;DHT22;3372;48.690;12.362;2022-07-12T06:02:30;24.20;18.10
6672;DHT22;3372;48.690;12.362;2022-07-12T06:04:55;24.30;18.80
6672;DHT22;3372;48.690;12.362;2022-07-12T06:07:21;24.80;19.20
6672;DHT22;3372;48.690;12.362;2022-07-12T06:09:46;24.70;18.80
6672;DHT22;3372;48.690;12.362;2022-07-12T06:12:12;24.80;18.50
6672;DHT22;3372;48.690;12.362;2022-07-12T06:14:38;25.30;18.70
6672;DHT22;3372;48.690;12.362;2022-07-12T06:17:04;25.40;18.10
6672;DHT22;3372;48.690;12.362;2022-07-12T06:19:30;25.30;17.50
6672;DHT22;3372;48.690;12.362;2022-07-12T06:21:55;25.70;17.40
6672;DHT22;3372;48.690;12.362;2022-07-12T06:24:21;25.70;17.70
6672;DHT22;3372;48.690;12.362;2022-07-12T06:26:46;26.00;16.90
6672;DHT22;3372;48.690;12.362;2022-07-12T06:29:12;25.60;14.70
6672;DHT22;3372;48.690;12.362;2022-07-12T06:31:37;25.90;16.40
6672;DHT22;3372;48.690;12.362;2022-07-12T06:34:03;26.10;16.20
6672;DHT22;3372;48.690;12.362;2022-07-12T06:36:29;26.50;16.00
6672;DHT22;3372;48.690;12.362;2022-07-12T06:38:54;26.40;15.80
6672;DHT22;3372;48.690;12.362;2022-07-12T06:41:20;26.10;15.30
6672;DHT22;3372;48.690;12.362;2022-07-12T06:43:45;25.50;13.70
6672;DHT22;3372;48.690;12.362;2022-07-12T06:46:11;25.70;16.00
6672;DHT22;3372;48.690;12.362;2022-07-12T06:48:36;25.80;15.50
6672;DHT22;3372;48.690;12.362;2022-07-12T06:51:02;26.10;16.10
6672;DHT22;3372;48.690;12.362;2022-07-12T06:53:28;25.70;13.00
6672;DHT22;3372;48.690;12.362;2022-07-12T06:55:53;26.10;15.40
6672;DHT22;3372;48.690;12.362;2022-07-12T06:58:19;25.80;13.10
6672;DHT22;3372;48.690;12.362;2022-07-12T07:00:45;25.30;13.40
6672;DHT22;3372;48.690;12.362;2022-07-12T07:03:10;25.90;16.20
6672;DHT22;3372;48.690;12.362;2022-07-12T07:05:36;26.30;14.70
6672;DHT22;3372;48.690;12.362;2022-07-12T07:08:03;25.80;14.30
6672;DHT22;3372;48.690;12.362;2022-07-12T07:10:28;26.10;14.90
6672;DHT22;3372;48.690;12.362;2022-07-12T07:12:54;25.00;14.40
6672;DHT22;3372;48.690;12.362;2022-07-12T07:15:20;25.60;16.30
6672;DHT22;3372;48.690;12.362;2022-07-12T07:17:45;26.00;15.40
6672;DHT22;3372;48.690;12.362;2022-07-12T07:20:11;26.00;14.00
6672;DHT22;3372;48.690;12.362;2022-07-12T07:22:38;26.50;14.70
6672;DHT22;3372;48.690;12.362;2022-07-12T07:25:05;26.00;12.00
6672;DHT22;3372;48.690;12.362;2022-07-12T07:27:31;26.20;15.00
6672;DHT22;3372;48.690;12.362;2022-07-12T07:29:56;26.00;12.90
6672;DHT22;3372;48.690;12.362;2022-07-12T07:32:40;25.80;14.10
6672;DHT22;3372;48.690;12.362;2022-07-12T07:35:06;25.50;10.70
6672;DHT22;3372;48.690;12.362;2022-07-12T07:37:34;24.80;14.10
6672;DHT22;3372;48.690;12.362;2022-07-12T07:40:00;24.90;14.20
6672;DHT22;3372;48.690;12.362;2022-07-12T07:42:26;25.60;14.30
6672;DHT22;3372;48.690;12.362;2022-07-12T07:44:51;26.00;13.00
6672;DHT22;3372;48.690;12.362;2022-07-12T07:47:17;25.60;12.40
6672;DHT22;3372;48.690;12.362;2022-07-12T07:49:42;26.30;13.80
6672;DHT22;3372;48.690;12.362;2022-07-12T07:52:08;26.10;12.20
6672;DHT22;3372;48.690;12.362;2022-07-12T07:54:33;26.50;13.50
6672;DHT22;3372;48.690;12.362;2022-07-12T07:56:59;26.70;12.70
6672;DHT22;3372;48.690;12.362;2022-07-12T07:59:25;26.00;11.50
6672;DHT22;3372;48.690;12.362;2022-07-12T08:01:50;26.00;12.50
6672;DHT22;3372;48.690;12.362;2022-07-12T08:04:20;26.00;11.00
6672;DHT22;3372;48.690;12.362;2022-07-12T08:06:47;26.40;13.90
6672;DHT22;3372;48.690;12.362;2022-07-12T08:09:13;25.60;10.60
6672;DHT22;3372;48.690;12.362;2022-07-12T08:11:39;25.40;13.00
6672;DHT22;3372;48.690;12.362;2022-07-12T08:14:06;26.30;14.00
6672;DHT22;3372;48.690;12.362;2022-07-12T08:16:32;26.80;13.40
6672;DHT22;3372;48.690;12.362;2022-07-12T08:18:58;26.80;10.10
6672;DHT22;3372;48.690;12.362;2022-07-12T08:21:24;26.60;12.90
6672;DHT22;3372;48.690;12.362;2022-07-12T08:23:50;26.00;12.50
6672;DHT22;3372;48.690;12.362;2022-07-12T08:26:16;25.70;12.10
6672;DHT22;3372;48.690;12.362;2022-07-12T08:28:42;25.50;12.00
6672;DHT22;3372;48.690;12.362;2022-07-12T08:31:09;25.30;12.90
6672;DHT22;3372;48.690;12.362;2022-07-12T08:33:34;25.10;13.20
6672;DHT22;3372;48.690;12.362;2022-07-12T08:36:00;24.40;11.70
6672;DHT22;3372;48.690;12.362;2022-07-12T08:38:25;24.90;13.50
6672;DHT22;3372;48.690;12.362;2022-07-12T08:40:51;25.80;12.50
6672;DHT22;3372;48.690;12.362;2022-07-12T08:43:17;26.30;12.80
6672;DHT22;3372;48.690;12.362;2022-07-12T08:45:43;26.60;11.10
6672;DHT22;3372;48.690;12.362;2022-07-12T08:48:09;26.20;11.10
6672;DHT22;3372;48.690;12.362;2022-07-12T08:50:34;26.50;11.60
6672;DHT22;3372;48.690;12.362;2022-07-12T08:53:00;26.30;10.70
6672;DHT22;3372;48.690;12.362;2022-07-12T08:55:34;26.60;9.10
6672;DHT22;3372;48.690;12.362;2022-07-12T08:58:14;26.10;9.00
6672;DHT22;3372;48.690;12.362;2022-07-12T09:00:40;26.20;11.00
6672;DHT22;3372;48.690;12.362;2022-07-12T09:03:06;26.50;10.60
6672;DHT22;3372;48.690;12.362;2022-07-12T09:05:33;26.50;10.30
6672;DHT22;3372;48.690;12.362;2022-07-12T09:08:09;26.30;10.80
6672;DHT22;3372;48.690;12.362;2022-07-12T09:11:01;26.40;9.30
6672;DHT22;3372;48.690;12.362;2022-07-12T09:13:50;25.80;9.00
6672;DHT22;3372;48.690;12.362;2022-07-12T09:16:19;26.20;9.50
6672;DHT22;3372;48.690;12.362;2022-07-12T09:18:45;26.50;10.50
6672;DHT22;3372;48.690;12.362;2022-07-12T09:21:22;27.10;9.40
6672;DHT22;3372;48.690;12.362;2022-07-12T09:23:55;27.70;9.50
6672;DHT22;3372;48.690;12.362;2022-07-12T09:26:21;27.50;5.90
6672;DHT22;3372;48.690;12.362;2022-07-12T09:28:49;27.80;7.60
6672;DHT22;3372;48.690;12.362;2022-07-12T09:31:16;27.10;7.40
6672;DHT22;3372;48.690;12.362;2022-07-12T09:33:42;27.40;5.50
6672;DHT22;3372;48.690;12.362;2022-07-12T09:36:42;27.20;5.90
6672;DHT22;3372;48.690;12.362;2022-07-12T09:39:19;26.90;5.50
6672;DHT22;3372;48.690;12.362;2022-07-12T09:41:45;26.70;6.40
6672;DHT22;3372;48.690;12.362;2022-07-12T09:44:11;26.00;6.10
6672;DHT22;3372;48.690;12.362;2022-07-12T09:46:37;26.00;7.20
6672;DHT22;3372;48.690;12.362;2022-07-12T09:49:04;26.20;7.60
6672;DHT22;3372;48.690;12.362;2022-07-12T09:51:31;26.40;6.60
6672;DHT22;3372;48.690;12.362;2022-07-12T09:54:00;26.80;5.80
6672;DHT22;3372;48.690;12.362;2022-07-12T09:56:28;27.30;5.20
6672;DHT22;3372;48.690;12.362;2022-07-12T09:58:57;27.20;5.50
6672;DHT22;3372;48.690;12.362;2022-07-12T10:01:23;27.30;5.20
6672;DHT22;3372;48.690;12.362;2022-07-12T10:03:51;27.30;5.10
6672;DHT22;3372;48.690;12.362;2022-07-12T10:06:29;26.80;4.90
6672;DHT22;3372;48.690;12.362;2022-07-12T10:08:55;26.70;3.30
6672;DHT22;3372;48.690;12.362;2022-07-12T10:11:22;26.50;3.90
6672;DHT22;3372;48.690;12.362;2022-07-12T10:13:49;25.90;4.60
6672;DHT22;3372;48.690;12.362;2022-07-12T10:16:16;25.20;6.30
6672;DHT22;3372;48.690;12.362;2022-07-12T10:19:25;25.50;6.80
6672;DHT22;3372;48.690;12.362;2022-07-12T10:21:53;26.20;8.30
6672;DHT22;3372;48.690;12.362;2022-07-12T10:30:13;25.80;3.40
6672;DHT22;3372;48.690;12.362;2022-07-12T10:32:41;25.40;5.60
6672;DHT22;3372;48.690;12.362;2022-07-12T10:37:38;25.40;6.10
6672;DHT22;3372;48.690;12.362;2022-07-12T10:40:14;25.70;7.30
6672;DHT22;3372;48.690;12.362;2022-07-12T10:42:41;26.30;6.40
6672;DHT22;3372;48.690;12.362;2022-07-12T10:45:35;26.20;3.30
6672;DHT22;3372;48.690;12.362;2022-07-12T10:48:06;26.00;4.60
6672;DHT22;3372;48.690;12.362;2022-07-12T10:58:50;26.00;3.30
6672;DHT22;3372;48.690;12.362;2022-07-12T11:01:22;26.20;4.60
6672;DHT22;3372;48.690;12.362;2022-07-12T11:04:08;26.50;4.90
6672;DHT22;3372;48.690;12.362;2022-07-12T11:06:38;26.80;2.50
6672;DHT22;3372;48.690;12.362;2022-07-12T11:09:07;26.90;4.60
6672;DHT22;3372;48.690;12.362;2022-07-12T11:11:41;26.90;4.60
6672;DHT22;3372;48.690;12.362;2022-07-12T11:14:08;26.40;3.40
6672;DHT22;3372;48.690;12.362;2022-07-12T11:16:41;26.10;3.30
6672;DHT22;3372;48.690;12.362;2022-07-12T11:19:07;26.10;3.90
6672;DHT22;3372;48.690;12.362;2022-07-12T11:21:33;26.10;3.50
6672;DHT22;3372;48.690;12.362;2022-07-12T11:23:59;26.00;3.10
6672;DHT22;3372;48.690;12.362;2022-07-12T11:26:25;26.10;4.30
6672;DHT22;3372;48.690;12.362;2022-07-12T11:28:51;26.30;4.80
6672;DHT22;3372;48.690;12.362;2022-07-12T11:31:17;26.40;2.40
6672;DHT22;3372;48.690;12.362;2022-07-12T11:33:45;26.10;1.30
6672;DHT22;3372;48.690;12.362;2022-07-12T11:36:12;26.40;3.20
6672;DHT22;3372;48.690;12.362;2022-07-12T11:38:40;26.30;1.00
6672;DHT22;3372;48.690;12.362;2022-07-12T11:41:07;26.00;1.60
6672;DHT22;3372;48.690;12.362;2022-07-12T11:43:35;25.70;2.10
6672;DHT22;3372;48.690;12.362;2022-07-12T11:46:03;25.70;3.90
6672;DHT22;3372;48.690;12.362;2022-07-12T11:48:29;25.70;4.00
6672;DHT22;3372;48.690;12.362;2022-07-12T11:51:06;25.50;3.50
6672;DHT22;3372;48.690;12.362;2022-07-12T11:53:33;26.00;3.00
6672;DHT22;3372;48.690;12.362;2022-07-12T11:56:00;26.20;2.60
6672;DHT22;3372;48.690;12.362;2022-07-12T11:58:27;26.20;1.30
6672;DHT22;3372;48.690;12.362;2022-07-12T12:00:54;25.70;1.00
6672;DHT22;3372;48.690;12.362;2022-07-12T12:03:21;25.60;1.00
6672;DHT22;3372;48.690;12.362;2022-07-12T12:05:48;25.70;2.10
6672;DHT22;3372;48.690;12.362;2022-07-12T12:08:15;25.80;2.50
6672;DHT22;3372;48.690;12.362;2022-07-12T12:10:43;26.10;2.50
6672;DHT22;3372;48.690;12.362;2022-07-12T12:13:16;26.40;2.70
6672;DHT22;3372;48.690;12.362;2022-07-12T12:15:56;26.50;2.00
6672;DHT22;3372;48.690;12.362;2022-07-12T12:18:39;26.70;1.90
6672;DHT22;3372;48.690;12.362;2022-07-12T12:21:06;26.70;1.70
6672;DHT22;3372;48.690;12.362;2022-07-12T12:23:33;26.10;1.00
6672;DHT22;3372;48.690;12.362;2022-07-12T12:28:46;25.80;1.00
6672;DHT22;3372;48.690;12.362;2022-07-12T12:31:14;25.70;1.00
6672;DHT22;3372;48.690;12.362;2022-07-12T12:33:44;25.90;1.40
6672;DHT22;3372;48.690;12.362;2022-07-12T12:36:11;26.10;2.80
6672;DHT22;3372;48.690;12.362;2022-07-12T12:38:37;26.10;1.50
6672;DHT22;3372;48.690;12.362;2022-07-12T12:41:03;26.10;1.00
6672;DHT22;3372;48.690;12.362;2022-07-12T12:43:30;26.10;2.00
6672;DHT22;3372;48.690;12.362;2022-07-12T12:45:57;25.80;1.90
6672;DHT22;3372;48.690;12.362;2022-07-12T12:48:30;25.80;2.60
6672;DHT22;3372;48.690;12.362;2022-07-12T12:51:09;25.90;2.90
6672;DHT22;3372;48.690;12.362;2022-07-12T12:53:36;26.30;2.00
6672;DHT22;3372;48.690;12.362;2022-07-12T12:56:06;26.40;1.00
6672;DHT22;3372;48.690;12.362;2022-07-12T12:58:33;26.50;2.30
6672;DHT22;3372;48.690;12.362;2022-07-12T13:00:58;26.70;1.30
6672;DHT22;3372;48.690;12.362;2022-07-12T13:03:24;26.70;1.00
6672;DHT22;3372;48.690;12.362;2022-07-12T13:05:50;26.90;1.00
6672;DHT22;3372;48.690;12.362;2022-07-12T13:08:16;27.00;1.00
6672;DHT22;3372;48.690;12.362;2022-07-12T13:10:43;27.00;1.00
6672;DHT22;3372;48.690;12.362;2022-07-12T13:13:10;26.80;1.00
6672;DHT22;3372;48.690;12.362;2022-07-12T13:15:37;26.70;1.40
6672;DHT22;3372;48.690;12.362;2022-07-12T13:18:04;26.70;1.60
6672;DHT22;3372;48.690;12.362;2022-07-12T13:20:30;26.50;1.00
6672;DHT22;3372;48.690;12.362;2022-07-12T13:22:56;26.30;1.20
6672;DHT22;3372;48.690;12.362;2022-07-12T13:25:23;26.30;1.10
6672;DHT22;3372;48.690;12.362;2022-07-12T13:27:50;26.40;1.70
6672;DHT22;3372;48.690;12.362;2022-07-12T13:30:16;26.20;1.00
6672;DHT22;3372;48.690;12.362;2022-07-12T13:32:42;26.40;1.00
6672;DHT22;3372;48.690;12.362;2022-07-12T13:35:10;26.70;1.90
6672;DHT22;3372;48.690;12.362;2022-07-12T13:37:40;26.70;1.00
6672;DHT22;3372;48.690;12.362;2022-07-12T13:40:06;26.60;1.00
6672;DHT22;3372;48.690;12.362;2022-07-12T13:42:43;26.40;1.90
6672;DHT22;3372;48.690;12.362;2022-07-12T13:45:11;26.00;1.20
6672;DHT22;3372;48.690;12.362;2022-07-12T13:47:38;26.00;2.20
6672;DHT22;3372;48.690;12.362;2022-07-12T13:50:05;25.80;2.80
6672;DHT22;3372;48.690;12.362;2022-07-12T13:52:31;25.80;1.40
6672;DHT22;3372;48.690;12.362;2022-07-12T13:54:57;26.10;2.60
6672;DHT22;3372;48.690;12.362;2022-07-12T13:57:22;26.10;2.10
6672;DHT22;3372;48.690;12.362;2022-07-12T13:59:48;25.80;2.10
6672;DHT22;3372;48.690;12.362;2022-07-12T14:02:14;25.80;1.90
6672;DHT22;3372;48.690;12.362;2022-07-12T14:04:40;25.70;1.40
6672;DHT22;3372;48.690;12.362;2022-07-12T14:07:06;25.90;2.70
6672;DHT22;3372;48.690;12.362;2022-07-12T14:09:31;26.00;2.50
6672;DHT22;3372;48.690;12.362;2022-07-12T14:11:57;26.30;3.00
6672;DHT22;3372;48.690;12.362;2022-07-12T14:14:23;26.50;1.80
6672;DHT22;3372;48.690;12.362;2022-07-12T14:17:08;26.70;1.00
6672;DHT22;3372;48.690;12.362;2022-07-12T14:19:34;26.80;1.60
6672;DHT22;3372;48.690;12.362;2022-07-12T14:21:59;27.00;1.80
6672;DHT22;3372;48.690;12.362;2022-07-12T14:24:25;27.10;1.40
6672;DHT22;3372;48.690;12.362;2022-07-12T14:26:50;27.10;2.10
6672;DHT22;3372;48.690;12.362;2022-07-12T14:29:16;26.80;1.00
6672;DHT22;3372;48.690;12.362;2022-07-12T14:31:42;27.10;1.00
6672;DHT22;3372;48.690;12.362;2022-07-12T14:34:07;26.90;1.00
6672;DHT22;3372;48.690;12.362;2022-07-12T14:36:33;27.00;1.00
6672;DHT22;3372;48.690;12.362;2022-07-12T14:38:59;27.20;1.00
6672;DHT22;3372;48.690;12.362;2022-07-12T14:41:25;27.40;1.00
6672;DHT22;3372;48.690;12.362;2022-07-12T14:43:50;27.40;1.00
6672;DHT22;3372;48.690;12.362;2022-07-12T14:46:16;27.50;1.00
6672;DHT22;3372;48.690;12.362;2022-07-12T14:48:42;27.10;1.00
6672;DHT22;3372;48.690;12.362;2022-07-12T14:51:09;26.90;1.00
6672;DHT22;3372;48.690;12.362;2022-07-12T14:53:35;26.80;1.00
6672;DHT22;3372;48.690;12.362;2022-07-12T14:56:01;26.80;1.30
6672;DHT22;3372;48.690;12.362;2022-07-12T14:58:27;26.70;1.80
6672;DHT22;3372;48.690;12.362;2022-07-12T15:00:55;26.90;1.40
6672;DHT22;3372;48.690;12.362;2022-07-12T15:03:21;26.80;1.40
6672;DHT22;3372;48.690;12.362;2022-07-12T15:05:47;27.00;1.30
6672;DHT22;3372;48.690;12.362;2022-07-12T15:08:12;26.90;1.00
6672;DHT22;3372;48.690;12.362;2022-07-12T15:10:38;26.70;1.50
6672;DHT22;3372;48.690;12.362;2022-07-12T15:13:04;27.00;2.30
6672;DHT22;3372;48.690;12.362;2022-07-12T15:15:33;27.20;1.00
6672;DHT22;3372;48.690;12.362;2022-07-12T15:17:59;27.40;1.00
6672;DHT22;3372;48.690;12.362;2022-07-12T15:20:25;27.10;1.00
6672;DHT22;3372;48.690;12.362;2022-07-12T15:22:50;27.40;1.00
6672;DHT22;3372;48.690;12.362;2022-07-12T15:25:16;27.50;1.00
6672;DHT22;3372;48.690;12.362;2022-07-12T15:27:41;27.70;1.00
6672;DHT22;3372;48.690;12.362;2022-07-12T15:30:08;27.70;1.00
6672;DHT22;3372;48.690;12.362;2022-07-12T15:32:33;27.40;1.00
6672;DHT22;3372;48.690;12.362;2022-07-12T15:34:59;27.50;1.00
6672;DHT22;3372;48.690;12.362;2022-07-12T15:37:25;27.60;1.00
6672;DHT22;3372;48.690;12.362;2022-07-12T15:39:50;27.50;1.00
6672;DHT22;3372;48.690;12.362;2022-07-12T15:42:16;27.20;1.00
6672;DHT22;3372;48.690;12.362;2022-07-12T15:44:42;27.20;1.00
6672;DHT22;3372;48.690;12.362;2022-07-12T15:47:08;27.40;1.00
6672;DHT22;3372;48.690;12.362;2022-07-12T15:49:38;27.40;1.00
6672;DHT22;3372;48.690;12.362;2022-07-12T15:52:04;27.50;1.00
6672;DHT22;3372;48.690;12.362;2022-07-12T15:54:48;27.60;1.00
6672;DHT22;3372;48.690;12.362;2022-07-12T15:57:14;27.50;1.00
6672;DHT22;3372;48.690;12.362;2022-07-12T15:59:41;27.50;1.00
6672;DHT22;3372;48.690;12.362;2022-07-12T16:02:07;27.40;1.00
6672;DHT22;3372;48.690;12.362;2022-07-12T16:04:34;27.50;1.00
6672;DHT22;3372;48.690;12.362;2022-07-12T16:07:00;27.50;1.00
6672;DHT22;3372;48.690;12.362;2022-07-12T16:09:29;27.40;1.00
6672;DHT22;3372;48.690;12.362;2022-07-12T16:11:56;27.60;1.00